createdAt,value
2023-05-20T00:01:21.549Z,14.01
2023-05-20T00:03:23.296Z,13.97
2023-05-20T00:05:24.909Z,13.92
2023-05-20T00:07:26.614Z,13.89
2023-05-20T00:09:29.637Z,13.88
2023-05-20T00:11:31.340Z,13.84
2023-05-20T00:13:32.840Z,13.81
2023-05-20T00:15:36.256Z,13.78
2023-05-20T00:17:38.545Z,13.76
2023-05-20T00:19:40.057Z,13.75
2023-05-20T00:21:41.548Z,13.72
2023-05-20T00:23:43.053Z,13.68
2023-05-20T00:25:44.539Z,13.65
2023-05-20T00:27:47.202Z,13.64
2023-05-20T00:29:48.730Z,13.58
2023-05-20T00:31:50.359Z,13.57
2023-05-20T00:33:51.850Z,13.57
2023-05-20T00:35:53.340Z,13.53
2023-05-20T00:37:54.806Z,13.49
2023-05-20T00:39:56.494Z,13.47
2023-05-20T00:42:02.759Z,13.45
2023-05-20T00:44:04.576Z,13.40
2023-05-20T00:46:06.193Z,13.31
2023-05-20T00:48:08.158Z,13.26
2023-05-20T00:50:11.329Z,13.22
2023-05-20T00:52:14.593Z,13.24
2023-05-20T00:54:16.570Z,13.20
2023-05-20T00:56:18.923Z,13.17
2023-05-20T00:58:20.603Z,13.11
2023-05-20T01:00:22.267Z,13.09
2023-05-20T01:02:24.194Z,13.05
2023-05-20T01:04:26.411Z,13.04
2023-05-20T01:06:28.215Z,13.01
2023-05-20T01:08:29.860Z,13.00
2023-05-20T01:10:33.343Z,12.97
2023-05-20T01:12:46.388Z,12.96
2023-05-20T01:15:00.568Z,12.91
2023-05-20T01:17:09.402Z,12.88
2023-05-20T01:19:38.302Z,12.83
2023-05-20T01:21:41.370Z,12.79
2023-05-20T01:23:43.052Z,12.77
2023-05-20T01:25:44.559Z,12.75
2023-05-20T01:27:47.195Z,12.74
2023-05-20T01:29:52.956Z,12.72
2023-05-20T01:31:57.893Z,12.70
2023-05-20T01:34:00.330Z,12.67
2023-05-20T01:36:02.806Z,12.67
2023-05-20T01:38:06.232Z,12.63
2023-05-20T01:40:09.561Z,12.60
2023-05-20T01:42:12.211Z,12.57
2023-05-20T01:44:13.812Z,12.55
2023-05-20T01:46:15.644Z,12.55
2023-05-20T01:48:17.492Z,12.51
2023-05-20T01:50:19.273Z,12.50
2023-05-20T01:52:22.170Z,12.44
2023-05-20T01:54:23.689Z,12.43
2023-05-20T01:56:25.765Z,12.42
2023-05-20T01:58:27.264Z,12.37
2023-05-20T02:00:28.840Z,12.31
2023-05-20T02:02:30.535Z,12.30
2023-05-20T02:04:32.066Z,12.30
2023-05-20T02:06:33.628Z,12.30
2023-05-20T02:08:35.222Z,12.27
2023-05-20T02:10:36.903Z,12.26
2023-05-20T02:12:38.648Z,12.24
2023-05-20T02:14:40.150Z,12.22
2023-05-20T02:16:41.964Z,12.18
2023-05-20T02:18:44.077Z,12.18
2023-05-20T02:20:45.664Z,12.14
2023-05-20T02:22:47.135Z,12.09
2023-05-20T02:24:48.635Z,12.08
2023-05-20T02:26:51.273Z,12.06
2023-05-20T02:28:52.824Z,12.01
2023-05-20T02:30:54.409Z,12.03
2023-05-20T02:32:56.127Z,12.02
2023-05-20T02:34:57.643Z,11.99
2023-05-20T02:36:59.197Z,11.96
2023-05-20T02:39:01.237Z,11.93
2023-05-20T02:41:04.486Z,11.91
2023-05-20T02:43:06.065Z,11.88
2023-05-20T02:45:08.254Z,11.85
2023-05-20T02:47:10.662Z,11.81
2023-05-20T02:49:12.149Z,11.82
2023-05-20T02:51:13.703Z,11.80
2023-05-20T02:53:15.193Z,11.78
2023-05-20T02:55:16.754Z,11.74
2023-05-20T02:57:18.294Z,11.70
2023-05-20T02:59:19.795Z,11.69
2023-05-20T03:01:22.039Z,11.67
2023-05-20T03:03:25.687Z,11.64
2023-05-20T03:05:27.552Z,11.61
2023-05-20T03:07:29.138Z,11.56
2023-05-20T03:09:30.603Z,11.54
2023-05-20T03:11:32.412Z,11.50
2023-05-20T03:13:35.011Z,11.48
2023-05-20T03:15:37.152Z,11.47
2023-05-20T03:17:39.017Z,11.46
2023-05-20T03:19:41.564Z,11.41
2023-05-20T03:21:43.927Z,11.38
2023-05-20T03:23:45.816Z,11.35
2023-05-20T03:25:48.635Z,11.35
2023-05-20T03:27:50.789Z,11.32
2023-05-20T03:29:55.113Z,11.27
2023-05-20T03:31:57.123Z,11.28
2023-05-20T03:33:59.085Z,11.28
2023-05-20T03:36:00.879Z,11.24
2023-05-20T03:38:02.549Z,11.22
2023-05-20T03:40:06.615Z,11.18
2023-05-20T03:42:08.323Z,11.16
2023-05-20T03:44:09.945Z,11.18
2023-05-20T03:46:11.595Z,11.15
2023-05-20T03:48:13.299Z,11.14
2023-05-20T03:50:15.190Z,11.12
2023-05-20T03:52:17.195Z,11.11
2023-05-20T03:54:19.111Z,11.12
2023-05-20T03:56:21.419Z,11.08
2023-05-20T03:58:23.451Z,11.06
2023-05-20T04:00:25.122Z,11.09
2023-05-20T04:02:27.545Z,11.05
2023-05-20T04:04:29.922Z,11.07
2023-05-20T04:06:31.756Z,11.06
2023-05-20T04:08:34.438Z,11.05
2023-05-20T04:10:36.321Z,11.06
2023-05-20T04:12:38.478Z,11.08
2023-05-20T04:14:42.442Z,11.05
2023-05-20T04:16:45.369Z,11.06
2023-05-20T04:18:49.238Z,11.08
2023-05-20T04:20:56.104Z,11.13
2023-05-20T04:22:58.230Z,11.16
2023-05-20T04:25:00.770Z,11.19
2023-05-20T04:27:02.412Z,11.21
2023-05-20T04:29:04.230Z,11.26
2023-05-20T04:31:06.062Z,11.32
2023-05-20T04:33:08.301Z,11.38
2023-05-20T04:35:12.318Z,11.45
2023-05-20T04:37:14.447Z,11.55
2023-05-20T04:39:16.094Z,11.62
2023-05-20T04:41:17.744Z,11.70
2023-05-20T04:43:19.337Z,11.78
2023-05-20T04:45:23.651Z,11.81
2023-05-20T04:47:25.775Z,11.82
2023-05-20T04:49:29.525Z,11.86
2023-05-20T04:51:31.676Z,11.93
2023-05-20T04:53:34.102Z,11.97
2023-05-20T04:55:37.558Z,12.02
2023-05-20T04:57:42.585Z,12.07
2023-05-20T04:59:45.710Z,12.09
2023-05-20T05:01:47.421Z,12.11
2023-05-20T05:03:49.046Z,12.15
2023-05-20T05:05:50.737Z,12.20
2023-05-20T05:07:52.659Z,12.18
2023-05-20T05:09:54.283Z,12.19
2023-05-20T05:11:56.056Z,12.22
2023-05-20T05:13:58.235Z,12.27
2023-05-20T05:16:03.634Z,12.38
2023-05-20T05:18:05.305Z,12.47
2023-05-20T05:20:08.972Z,12.54
2023-05-20T05:22:10.788Z,12.65
2023-05-20T05:24:12.696Z,12.72
2023-05-20T05:26:14.528Z,12.73
2023-05-20T05:28:16.254Z,12.77
2023-05-20T05:30:18.343Z,12.82
2023-05-20T05:32:20.582Z,12.83
2023-05-20T05:34:22.448Z,12.84
2023-05-20T05:36:26.145Z,12.87
2023-05-20T05:38:27.879Z,12.88
2023-05-20T05:40:29.607Z,12.96
2023-05-20T05:42:31.305Z,13.02
2023-05-20T05:44:33.078Z,13.08
2023-05-20T05:46:34.807Z,13.15
2023-05-20T05:48:37.556Z,13.22
2023-05-20T05:50:39.704Z,13.31
2023-05-20T05:52:41.469Z,13.34
2023-05-20T05:54:43.235Z,13.40
2023-05-20T05:56:45.136Z,13.45
2023-05-20T05:58:48.453Z,13.50
2023-05-20T06:00:56.981Z,13.53
2023-05-20T06:02:58.804Z,13.61
2023-05-20T06:05:00.704Z,13.65
2023-05-20T06:07:02.660Z,13.72
2023-05-20T06:09:04.290Z,13.79
2023-05-20T06:11:06.129Z,13.82
2023-05-20T06:13:07.825Z,13.87
2023-05-20T06:15:10.167Z,13.91
2023-05-20T06:17:11.910Z,13.96
2023-05-20T06:19:13.717Z,14.00
2023-05-20T06:21:15.601Z,14.03
2023-05-20T06:23:17.210Z,14.06
2023-05-20T06:25:19.133Z,14.11
2023-05-20T06:27:21.103Z,14.14
2023-05-20T06:29:23.517Z,14.17
2023-05-20T06:31:26.732Z,14.18
2023-05-20T06:33:29.874Z,14.22
2023-05-20T06:35:35.328Z,14.22
2023-05-20T06:37:37.406Z,14.27
2023-05-20T06:39:39.067Z,14.30
2023-05-20T06:41:41.428Z,14.33
2023-05-20T06:43:43.287Z,14.39
2023-05-20T06:45:45.660Z,14.40
2023-05-20T06:47:49.158Z,14.45
2023-05-20T06:49:51.056Z,14.52
2023-05-20T06:51:52.727Z,14.53
2023-05-20T06:53:54.779Z,14.59
2023-05-20T06:55:56.411Z,14.64
2023-05-20T06:57:58.426Z,14.69
2023-05-20T07:00:00.068Z,14.74
2023-05-20T07:02:02.650Z,14.80
2023-05-20T07:04:04.632Z,14.83
2023-05-20T07:06:06.411Z,14.85
2023-05-20T07:08:12.079Z,14.87
2023-05-20T07:10:13.794Z,14.94
2023-05-20T07:12:15.552Z,14.97
2023-05-20T07:14:17.627Z,15.05
2023-05-20T07:16:19.311Z,15.11
2023-05-20T07:18:21.783Z,15.16
2023-05-20T07:20:23.947Z,15.18
2023-05-20T07:22:26.096Z,15.22
2023-05-20T07:24:28.246Z,15.28
2023-05-20T07:26:33.917Z,15.35
2023-05-20T07:28:36.637Z,15.40
2023-05-20T07:30:38.440Z,15.42
2023-05-20T07:32:40.346Z,15.47
2023-05-20T07:34:42.016Z,15.51
2023-05-20T07:36:44.948Z,15.56
2023-05-20T07:38:57.062Z,15.61
2023-05-20T07:41:05.242Z,15.63
2023-05-20T07:43:11.237Z,15.65
2023-05-20T07:45:12.905Z,15.71
2023-05-20T07:47:14.634Z,15.80
2023-05-20T07:49:16.692Z,15.83
2023-05-20T07:51:19.349Z,15.91
2023-05-20T07:53:21.276Z,16.01
2023-05-20T07:55:23.215Z,16.08
2023-05-20T07:57:24.860Z,16.17
2023-05-20T07:59:26.782Z,16.23
2023-05-20T08:01:28.852Z,16.29
2023-05-20T08:03:31.873Z,16.34
2023-05-20T08:05:36.764Z,16.36
2023-05-20T08:07:38.415Z,16.41
2023-05-20T08:09:40.100Z,16.50
2023-05-20T08:11:41.815Z,16.57
2023-05-20T08:13:43.768Z,16.64
2023-05-20T08:15:45.807Z,16.69
2023-05-20T08:17:47.562Z,16.73
2023-05-20T08:19:49.576Z,16.78
2023-05-20T08:21:51.414Z,16.84
2023-05-20T08:23:53.029Z,16.87
2023-05-20T08:25:55.070Z,16.92
2023-05-20T08:27:56.724Z,17.00
2023-05-20T08:30:00.634Z,17.02
2023-05-20T08:32:02.625Z,17.06
2023-05-20T08:34:04.906Z,17.09
2023-05-20T08:36:08.455Z,17.10
2023-05-20T08:38:10.305Z,17.12
2023-05-20T08:40:13.137Z,17.17
2023-05-20T08:42:15.252Z,17.18
2023-05-20T08:44:19.593Z,17.18
2023-05-20T08:46:22.914Z,17.18
2023-05-20T08:48:26.348Z,17.20
2023-05-20T08:50:28.005Z,17.26
2023-05-20T08:52:32.141Z,17.39
2023-05-20T08:54:48.417Z,17.49
2023-05-20T08:56:54.366Z,17.51
2023-05-20T08:58:56.687Z,17.56
2023-05-20T09:01:02.419Z,17.66
2023-05-20T09:03:06.189Z,17.75
2023-05-20T09:05:10.406Z,17.80
2023-05-20T09:07:12.554Z,17.84
2023-05-20T09:09:15.000Z,17.93
2023-05-20T09:11:17.139Z,17.99
2023-05-20T09:13:22.238Z,18.01
2023-05-20T09:15:25.234Z,18.04
2023-05-20T09:17:26.931Z,18.08
2023-05-20T09:19:28.489Z,18.11
2023-05-20T09:21:30.360Z,18.13
2023-05-20T09:23:31.855Z,18.17
2023-05-20T09:25:34.693Z,18.18
2023-05-20T09:27:36.382Z,18.21
2023-05-20T09:29:37.866Z,18.30
2023-05-20T09:31:40.259Z,18.41
2023-05-20T09:33:41.785Z,18.52
2023-05-20T09:35:43.500Z,18.56
2023-05-20T09:37:47.092Z,18.52
2023-05-20T09:39:58.010Z,18.48
2023-05-20T09:42:35.475Z,18.43
2023-05-20T09:44:39.314Z,18.38
2023-05-20T09:46:41.460Z,18.41
2023-05-20T09:48:44.120Z,18.46
2023-05-20T09:50:45.804Z,18.52
2023-05-20T09:52:49.613Z,18.55
2023-05-20T09:54:51.187Z,18.59
2023-05-20T09:56:53.806Z,18.67
2023-05-20T09:58:58.365Z,18.68
2023-05-20T10:00:59.971Z,18.71
2023-05-20T10:03:01.977Z,18.76
2023-05-20T10:05:09.311Z,18.82
2023-05-20T10:07:42.562Z,18.87
2023-05-20T10:10:07.001Z,18.97
2023-05-20T10:12:24.559Z,19.10
2023-05-20T10:14:42.169Z,19.19
2023-05-20T10:17:17.413Z,19.32
2023-05-20T10:19:30.736Z,19.50
2023-05-20T10:21:32.868Z,19.63
2023-05-20T10:23:34.373Z,19.76
2023-05-20T10:25:36.105Z,19.83
2023-05-20T10:27:45.901Z,19.96
2023-05-20T10:29:52.342Z,20.06
2023-05-20T10:31:54.427Z,20.13
2023-05-20T10:33:58.969Z,20.00
2023-05-20T10:36:01.081Z,20.14
2023-05-20T10:38:11.272Z,20.19
2023-05-20T10:40:14.501Z,20.32
2023-05-20T10:42:16.187Z,20.32
2023-05-20T10:44:17.709Z,20.27
2023-05-20T10:46:32.555Z,20.18
2023-05-20T10:48:42.372Z,20.27
2023-05-20T10:50:44.972Z,20.33
2023-05-20T10:52:46.515Z,20.30
2023-05-20T10:54:54.616Z,20.18
2023-05-20T10:56:56.196Z,20.06
2023-05-20T10:58:57.795Z,20.02
2023-05-20T11:00:59.609Z,20.24
2023-05-20T11:03:01.593Z,20.28
2023-05-20T11:05:04.375Z,20.35
2023-05-20T11:07:05.923Z,20.26
2023-05-20T11:09:07.721Z,20.19
2023-05-20T11:11:13.078Z,20.15
2023-05-20T11:13:17.685Z,20.23
2023-05-20T11:15:19.377Z,20.43
2023-05-20T11:17:21.173Z,20.50
2023-05-20T11:19:23.078Z,20.44
2023-05-20T11:21:24.656Z,20.32
2023-05-20T11:23:27.980Z,20.19
2023-05-20T11:25:30.020Z,20.17
2023-05-20T11:27:31.508Z,20.14
2023-05-20T11:29:33.436Z,20.03
2023-05-20T11:31:38.884Z,20.00
2023-05-20T11:33:43.710Z,20.02
2023-05-20T11:35:46.327Z,20.05
2023-05-20T11:38:03.852Z,19.94
2023-05-20T11:40:09.969Z,19.80
2023-05-20T11:42:11.506Z,19.79
2023-05-20T11:44:13.395Z,19.84
2023-05-20T11:46:14.940Z,19.90
2023-05-20T11:48:16.565Z,19.88
2023-05-20T11:50:18.886Z,19.86
2023-05-20T11:52:21.132Z,19.84
2023-05-20T11:54:24.145Z,19.70
2023-05-20T11:56:26.088Z,19.60
2023-05-20T11:58:30.508Z,19.55
2023-05-20T12:00:43.054Z,19.47
2023-05-20T12:02:52.152Z,19.51
2023-05-20T12:04:53.831Z,19.52
2023-05-20T12:06:55.860Z,19.46
2023-05-20T12:08:58.484Z,19.45
2023-05-20T12:11:00.034Z,19.47
2023-05-20T12:13:03.219Z,19.44
2023-05-20T12:15:05.669Z,19.40
2023-05-20T12:17:07.469Z,19.38
2023-05-20T12:19:09.429Z,19.38
2023-05-20T12:21:11.073Z,19.39
2023-05-20T12:23:12.569Z,19.41
2023-05-20T12:25:16.665Z,19.42
2023-05-20T12:27:18.711Z,19.36
2023-05-20T12:29:20.260Z,19.35
2023-05-20T12:31:21.843Z,19.26
2023-05-20T12:33:23.444Z,19.22
2023-05-20T12:35:36.165Z,19.23
2023-05-20T12:37:39.439Z,19.19
2023-05-20T12:39:40.941Z,19.10
2023-05-20T12:41:42.442Z,19.12
2023-05-20T12:43:43.957Z,19.09
2023-05-20T12:45:45.468Z,19.01
2023-05-20T12:47:47.113Z,19.03
2023-05-20T12:49:48.748Z,19.11
2023-05-20T12:51:50.502Z,19.08
2023-05-20T12:53:51.980Z,19.01
2023-05-20T12:55:53.735Z,18.97
2023-05-20T12:57:56.280Z,18.97
2023-05-20T12:59:57.841Z,18.99
2023-05-20T13:01:59.377Z,19.00
2023-05-20T13:04:00.907Z,19.03
2023-05-20T13:06:03.096Z,19.04
2023-05-20T13:08:04.884Z,19.11
2023-05-20T13:10:08.073Z,19.19
2023-05-20T13:12:09.657Z,19.27
2023-05-20T13:14:11.762Z,19.34
2023-05-20T13:16:13.318Z,19.35
2023-05-20T13:18:16.446Z,19.31
2023-05-20T13:20:19.769Z,19.29
2023-05-20T13:22:21.722Z,19.22
2023-05-20T13:24:23.246Z,19.19
2023-05-20T13:26:24.750Z,19.21
2023-05-20T13:28:26.281Z,19.22
2023-05-20T13:30:28.553Z,19.29
2023-05-20T13:32:30.097Z,19.27
2023-05-20T13:34:31.885Z,19.33
2023-05-20T13:36:33.987Z,19.35
2023-05-20T13:38:37.234Z,19.32
2023-05-20T13:40:39.185Z,19.34
2023-05-20T13:42:40.780Z,19.35
2023-05-20T13:44:42.286Z,19.41
2023-05-20T13:46:43.822Z,19.49
2023-05-20T13:48:45.516Z,19.48
2023-05-20T13:50:47.140Z,19.44
2023-05-20T13:52:49.754Z,19.46
2023-05-20T13:54:51.549Z,19.42
2023-05-20T13:56:53.289Z,19.42
2023-05-20T13:58:54.783Z,19.50
2023-05-20T14:00:56.841Z,19.54
2023-05-20T14:03:00.489Z,19.54
2023-05-20T14:05:02.539Z,19.58
2023-05-20T14:07:09.532Z,19.58
2023-05-20T14:09:11.512Z,19.63
2023-05-20T14:11:13.074Z,19.68
2023-05-20T14:13:14.671Z,19.64
2023-05-20T14:15:16.297Z,19.57
2023-05-20T14:17:17.854Z,19.49
2023-05-20T14:19:19.358Z,19.53
2023-05-20T14:21:20.926Z,19.61
2023-05-20T14:23:22.641Z,19.72
2023-05-20T14:25:24.206Z,19.83
2023-05-20T14:27:25.789Z,19.91
2023-05-20T14:29:27.368Z,19.94
2023-05-20T14:31:28.978Z,20.01
2023-05-20T14:33:30.633Z,19.97
2023-05-20T14:35:32.205Z,19.88
2023-05-20T14:37:33.714Z,19.77
2023-05-20T14:39:38.557Z,19.70
2023-05-20T14:41:40.102Z,19.67
2023-05-20T14:43:41.605Z,19.67
2023-05-20T14:45:46.682Z,19.70
2023-05-20T14:47:48.340Z,19.70
2023-05-20T14:49:50.297Z,19.73
2023-05-20T14:51:51.826Z,19.74
2023-05-20T14:53:53.312Z,19.67
2023-05-20T14:55:55.028Z,19.65
2023-05-20T14:57:56.568Z,19.66
2023-05-20T14:59:58.241Z,19.70
2023-05-20T15:01:59.913Z,19.72
2023-05-20T15:04:01.573Z,19.74
2023-05-20T15:06:03.205Z,19.72
2023-05-20T15:08:04.903Z,19.68
2023-05-20T15:10:07.834Z,19.63
2023-05-20T15:12:11.140Z,19.62
2023-05-20T15:14:12.725Z,19.60
2023-05-20T15:16:14.378Z,19.63
2023-05-20T15:18:16.741Z,19.67
2023-05-20T15:20:18.424Z,19.71
2023-05-20T15:22:19.974Z,19.71
2023-05-20T15:24:22.071Z,19.67
2023-05-20T15:26:26.870Z,19.61
2023-05-20T15:28:28.353Z,19.57
2023-05-20T15:30:29.851Z,19.48
2023-05-20T15:32:31.466Z,19.41
2023-05-20T15:34:33.740Z,19.37
2023-05-20T15:36:35.517Z,19.33
2023-05-20T15:38:36.988Z,19.33
2023-05-20T15:40:38.533Z,19.34
2023-05-20T15:42:40.093Z,19.37
2023-05-20T15:44:41.586Z,19.39
2023-05-20T15:46:44.419Z,19.44
2023-05-20T15:48:46.148Z,19.45
2023-05-20T15:50:47.816Z,19.42
2023-05-20T15:52:52.790Z,19.37
2023-05-20T15:54:54.286Z,19.28
2023-05-20T15:56:55.873Z,19.21
2023-05-20T15:58:57.375Z,19.16
2023-05-20T16:00:58.951Z,19.13
2023-05-20T16:03:00.633Z,19.17
2023-05-20T16:05:02.593Z,19.18
2023-05-20T16:07:04.261Z,19.19
2023-05-20T16:09:05.975Z,19.16
2023-05-20T16:11:08.033Z,19.10
2023-05-20T16:13:09.560Z,19.08
2023-05-20T16:15:11.536Z,19.06
2023-05-20T16:17:13.050Z,19.01
2023-05-20T16:19:14.638Z,18.96
2023-05-20T16:21:16.502Z,18.86
2023-05-20T16:23:18.035Z,18.76
2023-05-20T16:25:19.607Z,18.71
2023-05-20T16:27:21.155Z,18.69
2023-05-20T16:29:22.679Z,18.65
2023-05-20T16:31:24.222Z,18.59
2023-05-20T16:33:25.779Z,18.60
2023-05-20T16:35:27.356Z,18.56
2023-05-20T16:37:28.858Z,18.60
2023-05-20T16:39:30.411Z,18.61
2023-05-20T16:41:32.048Z,18.62
2023-05-20T16:43:33.677Z,18.57
2023-05-20T16:45:35.425Z,18.52
2023-05-20T16:47:37.026Z,18.44
2023-05-20T16:49:38.629Z,18.38
2023-05-20T16:51:40.139Z,18.34
2023-05-20T16:53:41.801Z,18.33
2023-05-20T16:55:43.338Z,18.24
2023-05-20T16:57:44.943Z,18.19
2023-05-20T16:59:46.693Z,18.12
2023-05-20T17:01:48.192Z,18.11
2023-05-20T17:03:49.777Z,18.10
2023-05-20T17:05:51.398Z,18.10
2023-05-20T17:07:55.438Z,18.12
2023-05-20T17:09:56.993Z,18.15
2023-05-20T17:11:58.771Z,18.17
2023-05-20T17:14:01.300Z,18.20
2023-05-20T17:16:02.892Z,18.22
2023-05-20T17:18:04.554Z,18.17
2023-05-20T17:20:07.152Z,18.16
2023-05-20T17:22:08.905Z,18.18
2023-05-20T17:24:10.511Z,18.15
2023-05-20T17:26:12.189Z,18.16
2023-05-20T17:28:13.693Z,18.11
2023-05-20T17:30:15.493Z,18.11
2023-05-20T17:32:17.145Z,18.10
2023-05-20T17:34:18.849Z,18.07
2023-05-20T17:36:22.658Z,18.03
2023-05-20T17:38:26.371Z,18.01
2023-05-20T17:40:28.023Z,17.98
2023-05-20T17:42:29.530Z,17.96
2023-05-20T17:44:31.136Z,17.96
2023-05-20T17:46:38.477Z,17.86
2023-05-20T17:48:43.439Z,17.82
2023-05-20T17:50:45.012Z,17.81
2023-05-20T17:52:46.837Z,17.78
2023-05-20T17:54:48.393Z,17.76
2023-05-20T17:56:51.013Z,17.75
2023-05-20T17:58:54.264Z,17.74
2023-05-20T18:00:57.529Z,17.70
2023-05-20T18:02:59.280Z,17.62
2023-05-20T18:05:01.427Z,17.62
2023-05-20T18:07:04.088Z,17.57
2023-05-20T18:09:05.987Z,17.52
2023-05-20T18:11:07.548Z,17.47
2023-05-20T18:13:09.205Z,17.43
2023-05-20T18:15:11.190Z,17.35
2023-05-20T18:17:12.738Z,17.37
2023-05-20T18:19:15.197Z,17.33
2023-05-20T18:21:16.781Z,17.28
2023-05-20T18:23:18.444Z,17.28
2023-05-20T18:25:20.202Z,17.25
2023-05-20T18:27:21.732Z,17.24
2023-05-20T18:29:24.369Z,17.21
2023-05-20T18:31:26.002Z,17.21
2023-05-20T18:33:27.677Z,17.17
2023-05-20T18:35:29.416Z,17.18
2023-05-20T18:37:31.465Z,17.17
2023-05-20T18:39:33.066Z,17.15
2023-05-20T18:41:46.110Z,17.13
2023-05-20T18:43:49.239Z,17.09
2023-05-20T18:45:51.264Z,17.07
2023-05-20T18:47:54.406Z,17.07
2023-05-20T18:49:56.087Z,17.05
2023-05-20T18:51:57.710Z,17.01
2023-05-20T18:54:00.202Z,17.01
2023-05-20T18:56:03.190Z,17.00
2023-05-20T18:58:04.743Z,16.97
2023-05-20T19:00:10.772Z,16.95
2023-05-20T19:02:12.689Z,16.93
2023-05-20T19:04:14.746Z,16.95
2023-05-20T19:06:16.475Z,16.95
2023-05-20T19:08:18.063Z,16.89
2023-05-20T19:10:19.661Z,16.86
2023-05-20T19:12:21.415Z,16.84
2023-05-20T19:14:22.926Z,16.84
2023-05-20T19:16:25.619Z,16.84
2023-05-20T19:18:30.509Z,16.78
2023-05-20T19:20:34.069Z,16.78
2023-05-20T19:22:35.780Z,16.79
2023-05-20T19:24:37.529Z,16.75
2023-05-20T19:26:39.691Z,16.71
2023-05-20T19:28:41.269Z,16.70
2023-05-20T19:30:42.986Z,16.71
2023-05-20T19:32:44.560Z,16.70
2023-05-20T19:34:46.274Z,16.67
2023-05-20T19:36:47.873Z,16.67
2023-05-20T19:38:49.384Z,16.67
2023-05-20T19:40:51.053Z,16.64
2023-05-20T19:42:52.746Z,16.61
2023-05-20T19:44:54.425Z,16.59
2023-05-20T19:46:56.099Z,16.58
2023-05-20T19:48:58.308Z,16.59
2023-05-20T19:51:00.153Z,16.56
2023-05-20T19:53:06.091Z,16.51
2023-05-20T19:55:08.439Z,16.46
2023-05-20T19:57:10.380Z,16.47
2023-05-20T19:59:13.026Z,16.49
2023-05-20T20:01:15.023Z,16.46
2023-05-20T20:03:16.581Z,16.44
2023-05-20T20:05:18.350Z,16.42
2023-05-20T20:07:19.954Z,16.39
2023-05-20T20:09:21.519Z,16.38
2023-05-20T20:11:23.743Z,16.38
2023-05-20T20:13:25.621Z,16.34
2023-05-20T20:15:28.073Z,16.30
2023-05-20T20:17:30.274Z,16.31
2023-05-20T20:19:31.928Z,16.27
2023-05-20T20:21:33.458Z,16.24
2023-05-20T20:23:36.862Z,16.20
2023-05-20T20:25:39.239Z,16.22
2023-05-20T20:27:43.858Z,16.20
2023-05-20T20:29:45.584Z,16.14
2023-05-20T20:31:47.277Z,16.14
2023-05-20T20:33:48.856Z,16.14
2023-05-20T20:35:51.456Z,16.13
2023-05-20T20:37:54.408Z,16.15
2023-05-20T20:39:55.964Z,16.14
2023-05-20T20:41:58.659Z,16.12
2023-05-20T20:44:03.549Z,16.11
2023-05-20T20:46:06.335Z,16.10
2023-05-20T20:48:08.618Z,16.07
2023-05-20T20:50:11.830Z,16.08
2023-05-20T20:52:13.418Z,16.07
2023-05-20T20:54:15.628Z,16.05
2023-05-20T20:56:17.629Z,16.03
2023-05-20T20:58:19.273Z,16.01
2023-05-20T21:00:23.224Z,16.03
2023-05-20T21:02:24.841Z,16.02
2023-05-20T21:04:27.735Z,15.99
2023-05-20T21:06:29.526Z,15.95
2023-05-20T21:08:31.929Z,15.95
2023-05-20T21:10:35.948Z,15.95
2023-05-20T21:12:37.448Z,15.94
2023-05-20T21:14:39.108Z,15.93
2023-05-20T21:16:42.240Z,15.92
2023-05-20T21:18:43.950Z,15.90
2023-05-20T21:20:45.596Z,15.90
2023-05-20T21:22:47.372Z,15.89
2023-05-20T21:24:48.893Z,15.89
2023-05-20T21:26:50.541Z,15.88
2023-05-20T21:28:52.785Z,15.88
2023-05-20T21:30:54.360Z,15.86
2023-05-20T21:32:56.172Z,15.87
2023-05-20T21:34:58.440Z,15.84
2023-05-20T21:37:00.163Z,15.80
2023-05-20T21:39:01.715Z,15.82
2023-05-20T21:41:03.343Z,15.80
2023-05-20T21:43:04.934Z,15.77
2023-05-20T21:45:07.176Z,15.76
2023-05-20T21:47:08.691Z,15.76
2023-05-20T21:49:10.191Z,15.76
2023-05-20T21:51:11.700Z,15.73
2023-05-20T21:53:13.262Z,15.73
2023-05-20T21:55:14.932Z,15.73
2023-05-20T21:57:16.516Z,15.71
2023-05-20T21:59:18.020Z,15.68
2023-05-20T22:01:19.549Z,15.68
2023-05-20T22:03:22.148Z,15.65
2023-05-20T22:05:23.813Z,15.64
2023-05-20T22:07:25.460Z,15.64
2023-05-20T22:09:26.999Z,15.62
2023-05-20T22:11:28.761Z,15.64
2023-05-20T22:13:30.293Z,15.63
2023-05-20T22:15:31.892Z,15.62
2023-05-20T22:17:34.199Z,15.63
2023-05-20T22:19:35.823Z,15.62
2023-05-20T22:21:46.598Z,15.61
2023-05-20T22:23:51.547Z,15.60
2023-05-20T22:25:53.404Z,15.60
2023-05-20T22:27:54.989Z,15.58
2023-05-20T22:29:56.526Z,15.60
2023-05-20T22:31:58.362Z,15.60
2023-05-20T22:34:00.336Z,15.58
2023-05-20T22:36:01.887Z,15.57
2023-05-20T22:38:03.715Z,15.57
2023-05-20T22:40:06.168Z,15.57
2023-05-20T22:42:07.655Z,15.55
2023-05-20T22:44:09.218Z,15.54
2023-05-20T22:46:10.907Z,15.53
2023-05-20T22:48:12.471Z,15.53
2023-05-20T22:50:14.052Z,15.52
2023-05-20T22:52:15.598Z,15.50
2023-05-20T22:54:17.542Z,15.48
2023-05-20T22:56:19.627Z,15.45
2023-05-20T22:58:21.172Z,15.44
2023-05-20T23:00:23.363Z,15.43
2023-05-20T23:02:24.893Z,15.38
2023-05-20T23:04:26.557Z,15.37
2023-05-20T23:06:28.139Z,15.36
2023-05-20T23:08:29.821Z,15.34
2023-05-20T23:10:31.435Z,15.34
2023-05-20T23:12:33.008Z,15.33
2023-05-20T23:14:34.890Z,15.31
2023-05-20T23:16:42.017Z,15.28
2023-05-20T23:18:43.748Z,15.27
2023-05-20T23:20:45.396Z,15.25
2023-05-20T23:22:47.203Z,15.21
2023-05-20T23:24:48.729Z,15.19
2023-05-20T23:26:50.659Z,15.16
2023-05-20T23:28:52.180Z,15.14
2023-05-20T23:30:54.578Z,15.11
2023-05-20T23:32:56.259Z,15.08
2023-05-20T23:34:57.975Z,15.05
2023-05-20T23:36:59.551Z,15.01
2023-05-20T23:39:02.528Z,14.98
2023-05-20T23:41:04.214Z,14.93
2023-05-20T23:43:05.761Z,14.92
2023-05-20T23:45:07.780Z,14.90
2023-05-20T23:47:09.692Z,14.87
2023-05-20T23:49:12.583Z,14.85
2023-05-20T23:51:14.553Z,14.84
2023-05-20T23:53:17.082Z,14.78
2023-05-20T23:55:18.829Z,14.75
2023-05-20T23:57:20.795Z,14.69
2023-05-20T23:59:22.379Z,14.67
